sensor_id;sensor_type;location;lat;lon;timestamp;P1;durP1;ratioP1;P2;durP2;ratioP2
12719;SDS011;6424;48.520;11.228;2023-06-04T00:00:25;4.13;;;3.00;;
12719;SDS011;6424;48.520;11.228;2023-06-04T00:03:06;4.07;;;2.97;;
12719;SDS011;6424;48.520;11.228;2023-06-04T00:05:46;4.33;;;2.73;;
12719;SDS011;6424;48.520;11.228;2023-06-04T00:08:27;4.03;;;3.17;;
12719;SDS011;6424;48.520;11.228;2023-06-04T00:11:08;4.60;;;2.90;;
12719;SDS011;6424;48.520;11.228;2023-06-04T00:13:49;5.23;;;2.83;;
12719;SDS011;6424;48.520;11.228;2023-06-04T00:16:30;3.37;;;2.60;;
12719;SDS011;6424;48.520;11.228;2023-06-04T00:19:11;5.80;;;2.83;;
12719;SDS011;6424;48.520;11.228;2023-06-04T00:21:51;3.87;;;2.60;;
12719;SDS011;6424;48.520;11.228;2023-06-04T00:24:32;6.27;;;2.90;;
12719;SDS011;6424;48.520;11.228;2023-06-04T00:27:14;4.67;;;2.83;;
12719;SDS011;6424;48.520;11.228;2023-06-04T00:29:54;4.93;;;2.67;;
12719;SDS011;6424;48.520;11.228;2023-06-04T00:32:35;3.47;;;2.40;;
12719;SDS011;6424;48.520;11.228;2023-06-04T00:35:16;5.30;;;2.87;;
12719;SDS011;6424;48.520;11.228;2023-06-04T00:37:42;3.47;;;2.30;;
12719;SDS011;6424;48.520;11.228;2023-06-04T00:40:23;2.70;;;2.30;;
12719;SDS011;6424;48.520;11.228;2023-06-04T00:43:04;2.57;;;2.27;;
12719;SDS011;6424;48.520;11.228;2023-06-04T00:45:45;4.10;;;2.70;;
12719;SDS011;6424;48.520;11.228;2023-06-04T00:48:26;3.90;;;2.27;;
12719;SDS011;6424;48.520;11.228;2023-06-04T00:51:10;3.00;;;2.43;;
12719;SDS011;6424;48.520;11.228;2023-06-04T00:53:52;3.40;;;2.37;;
12719;SDS011;6424;48.520;11.228;2023-06-04T00:56:34;3.27;;;2.37;;
12719;SDS011;6424;48.520;11.228;2023-06-04T00:59:07;2.93;;;2.00;;
12719;SDS011;6424;48.520;11.228;2023-06-04T01:05:01;2.67;;;2.30;;
12719;SDS011;6424;48.520;11.228;2023-06-04T01:07:50;4.47;;;2.77;;
12719;SDS011;6424;48.520;11.228;2023-06-04T01:10:30;2.80;;;2.33;;
12719;SDS011;6424;48.520;11.228;2023-06-04T01:13:11;3.40;;;2.40;;
12719;SDS011;6424;48.520;11.228;2023-06-04T01:15:52;2.77;;;2.30;;
12719;SDS011;6424;48.520;11.228;2023-06-04T01:18:33;3.47;;;2.47;;
12719;SDS011;6424;48.520;11.228;2023-06-04T01:21:16;5.27;;;2.43;;
12719;SDS011;6424;48.520;11.228;2023-06-04T01:23:59;4.80;;;2.60;;
12719;SDS011;6424;48.520;11.228;2023-06-04T01:26:42;4.13;;;2.20;;
12719;SDS011;6424;48.520;11.228;2023-06-04T01:29:23;3.27;;;2.30;;
12719;SDS011;6424;48.520;11.228;2023-06-04T01:32:04;4.10;;;2.33;;
12719;SDS011;6424;48.520;11.228;2023-06-04T01:34:45;3.93;;;2.20;;
12719;SDS011;6424;48.520;11.228;2023-06-04T01:37:26;2.87;;;2.37;;
12719;SDS011;6424;48.520;11.228;2023-06-04T01:40:07;4.27;;;2.43;;
12719;SDS011;6424;48.520;11.228;2023-06-04T01:42:48;4.30;;;2.27;;
12719;SDS011;6424;48.520;11.228;2023-06-04T01:45:29;5.37;;;2.43;;
12719;SDS011;6424;48.520;11.228;2023-06-04T01:48:10;4.07;;;2.23;;
12719;SDS011;6424;48.520;11.228;2023-06-04T01:50:51;4.23;;;2.60;;
12719;SDS011;6424;48.520;11.228;2023-06-04T01:53:32;3.97;;;2.30;;
12719;SDS011;6424;48.520;11.228;2023-06-04T01:56:13;3.43;;;2.57;;
12719;SDS011;6424;48.520;11.228;2023-06-04T01:58:54;3.53;;;2.50;;
12719;SDS011;6424;48.520;11.228;2023-06-04T02:01:35;3.23;;;2.57;;
12719;SDS011;6424;48.520;11.228;2023-06-04T02:04:16;3.17;;;2.30;;
12719;SDS011;6424;48.520;11.228;2023-06-04T02:06:57;6.63;;;2.70;;
12719;SDS011;6424;48.520;11.228;2023-06-04T02:09:39;2.83;;;2.50;;
12719;SDS011;6424;48.520;11.228;2023-06-04T02:12:21;6.10;;;2.83;;
12719;SDS011;6424;48.520;11.228;2023-06-04T02:15:01;7.00;;;2.70;;
12719;SDS011;6424;48.520;11.228;2023-06-04T02:17:42;5.53;;;2.60;;
12719;SDS011;6424;48.520;11.228;2023-06-04T02:20:11;4.73;;;2.47;;
12719;SDS011;6424;48.520;11.228;2023-06-04T02:22:53;4.70;;;2.60;;
12719;SDS011;6424;48.520;11.228;2023-06-04T02:25:35;4.20;;;2.80;;
12719;SDS011;6424;48.520;11.228;2023-06-04T02:28:15;4.57;;;2.77;;
12719;SDS011;6424;48.520;11.228;2023-06-04T02:30:56;3.27;;;2.80;;
12719;SDS011;6424;48.520;11.228;2023-06-04T02:33:37;3.67;;;2.87;;
12719;SDS011;6424;48.520;11.228;2023-06-04T02:36:18;4.47;;;2.87;;
12719;SDS011;6424;48.520;11.228;2023-06-04T02:38:44;4.43;;;3.03;;
12719;SDS011;6424;48.520;11.228;2023-06-04T02:41:24;3.67;;;3.00;;
12719;SDS011;6424;48.520;11.228;2023-06-04T02:44:06;5.10;;;2.80;;
12719;SDS011;6424;48.520;11.228;2023-06-04T02:46:32;6.20;;;2.90;;
12719;SDS011;6424;48.520;11.228;2023-06-04T02:49:12;5.27;;;2.80;;
12719;SDS011;6424;48.520;11.228;2023-06-04T02:51:42;3.93;;;2.70;;
12719;SDS011;6424;48.520;11.228;2023-06-04T02:54:23;3.47;;;3.17;;
12719;SDS011;6424;48.520;11.228;2023-06-04T02:57:04;5.23;;;2.90;;
12719;SDS011;6424;48.520;11.228;2023-06-04T02:59:30;4.57;;;2.97;;
12719;SDS011;6424;48.520;11.228;2023-06-04T03:02:10;3.60;;;3.13;;
12719;SDS011;6424;48.520;11.228;2023-06-04T03:04:52;3.47;;;2.87;;
12719;SDS011;6424;48.520;11.228;2023-06-04T03:07:35;3.47;;;2.70;;
12719;SDS011;6424;48.520;11.228;2023-06-04T03:10:15;3.87;;;3.30;;
12719;SDS011;6424;48.520;11.228;2023-06-04T03:12:56;3.17;;;2.87;;
12719;SDS011;6424;48.520;11.228;2023-06-04T03:15:37;3.57;;;2.70;;
12719;SDS011;6424;48.520;11.228;2023-06-04T03:18:19;4.53;;;3.00;;
12719;SDS011;6424;48.520;11.228;2023-06-04T03:21:00;4.17;;;2.57;;
12719;SDS011;6424;48.520;11.228;2023-06-04T03:23:41;3.70;;;2.73;;
12719;SDS011;6424;48.520;11.228;2023-06-04T03:26:23;3.60;;;2.93;;
12719;SDS011;6424;48.520;11.228;2023-06-04T03:29:04;5.47;;;2.93;;
12719;SDS011;6424;48.520;11.228;2023-06-04T03:31:45;3.93;;;2.73;;
12719;SDS011;6424;48.520;11.228;2023-06-04T03:34:26;4.40;;;2.90;;
12719;SDS011;6424;48.520;11.228;2023-06-04T03:37:07;3.00;;;2.33;;
12719;SDS011;6424;48.520;11.228;2023-06-04T03:39:33;5.73;;;2.77;;
12719;SDS011;6424;48.520;11.228;2023-06-04T03:42:13;4.07;;;2.63;;
12719;SDS011;6424;48.520;11.228;2023-06-04T03:44:54;4.90;;;2.50;;
12719;SDS011;6424;48.520;11.228;2023-06-04T03:47:38;5.00;;;2.20;;
12719;SDS011;6424;48.520;11.228;2023-06-04T03:50:19;2.93;;;2.30;;
12719;SDS011;6424;48.520;11.228;2023-06-04T03:53:00;3.40;;;2.13;;
12719;SDS011;6424;48.520;11.228;2023-06-04T03:55:40;3.80;;;2.33;;
12719;SDS011;6424;48.520;11.228;2023-06-04T03:58:21;3.63;;;2.17;;
12719;SDS011;6424;48.520;11.228;2023-06-04T04:01:02;5.60;;;2.27;;
12719;SDS011;6424;48.520;11.228;2023-06-04T04:03:44;3.30;;;2.57;;
12719;SDS011;6424;48.520;11.228;2023-06-04T04:06:28;5.23;;;2.47;;
12719;SDS011;6424;48.520;11.228;2023-06-04T04:09:09;3.17;;;2.33;;
12719;SDS011;6424;48.520;11.228;2023-06-04T04:11:35;4.17;;;2.40;;
12719;SDS011;6424;48.520;11.228;2023-06-04T04:14:16;4.13;;;2.00;;
12719;SDS011;6424;48.520;11.228;2023-06-04T04:16:56;4.07;;;1.90;;
12719;SDS011;6424;48.520;11.228;2023-06-04T04:19:37;2.57;;;2.00;;
12719;SDS011;6424;48.520;11.228;2023-06-04T04:22:18;2.97;;;2.07;;
12719;SDS011;6424;48.520;11.228;2023-06-04T04:24:59;3.60;;;1.93;;
12719;SDS011;6424;48.520;11.228;2023-06-04T04:27:41;3.87;;;2.10;;
12719;SDS011;6424;48.520;11.228;2023-06-04T04:30:22;6.40;;;2.83;;
12719;SDS011;6424;48.520;11.228;2023-06-04T04:33:03;8.03;;;5.53;;
12719;SDS011;6424;48.520;11.228;2023-06-04T04:35:47;10.30;;;6.90;;
12719;SDS011;6424;48.520;11.228;2023-06-04T04:38:28;5.47;;;4.70;;
12719;SDS011;6424;48.520;11.228;2023-06-04T04:41:11;7.83;;;6.17;;
12719;SDS011;6424;48.520;11.228;2023-06-04T04:43:52;10.90;;;6.23;;
12719;SDS011;6424;48.520;11.228;2023-06-04T04:46:34;5.70;;;3.90;;
12719;SDS011;6424;48.520;11.228;2023-06-04T04:49:14;6.83;;;4.97;;
12719;SDS011;6424;48.520;11.228;2023-06-04T04:51:55;8.77;;;7.00;;
12719;SDS011;6424;48.520;11.228;2023-06-04T04:54:36;10.43;;;9.43;;
12719;SDS011;6424;48.520;11.228;2023-06-04T04:57:17;4.83;;;3.70;;
12719;SDS011;6424;48.520;11.228;2023-06-04T04:59:58;6.00;;;3.87;;
12719;SDS011;6424;48.520;11.228;2023-06-04T05:02:39;3.17;;;2.40;;
12719;SDS011;6424;48.520;11.228;2023-06-04T05:05:20;3.43;;;2.10;;
12719;SDS011;6424;48.520;11.228;2023-06-04T05:08:01;5.07;;;2.30;;
12719;SDS011;6424;48.520;11.228;2023-06-04T05:10:42;3.23;;;2.33;;
12719;SDS011;6424;48.520;11.228;2023-06-04T05:13:23;5.97;;;2.10;;
12719;SDS011;6424;48.520;11.228;2023-06-04T05:16:04;2.43;;;1.87;;
12719;SDS011;6424;48.520;11.228;2023-06-04T05:18:46;3.37;;;2.07;;
12719;SDS011;6424;48.520;11.228;2023-06-04T05:21:27;3.30;;;1.70;;
12719;SDS011;6424;48.520;11.228;2023-06-04T05:24:10;2.30;;;1.90;;
12719;SDS011;6424;48.520;11.228;2023-06-04T05:26:51;6.10;;;2.23;;
12719;SDS011;6424;48.520;11.228;2023-06-04T05:29:32;2.87;;;2.03;;
12719;SDS011;6424;48.520;11.228;2023-06-04T05:32:13;3.37;;;1.90;;
12719;SDS011;6424;48.520;11.228;2023-06-04T05:34:54;3.47;;;2.40;;
12719;SDS011;6424;48.520;11.228;2023-06-04T05:37:38;3.87;;;2.13;;
12719;SDS011;6424;48.520;11.228;2023-06-04T05:40:20;2.93;;;2.33;;
12719;SDS011;6424;48.520;11.228;2023-06-04T05:43:01;3.23;;;2.10;;
12719;SDS011;6424;48.520;11.228;2023-06-04T05:45:42;5.50;;;2.10;;
12719;SDS011;6424;48.520;11.228;2023-06-04T05:48:23;2.90;;;1.80;;
12719;SDS011;6424;48.520;11.228;2023-06-04T05:51:04;3.70;;;2.17;;
12719;SDS011;6424;48.520;11.228;2023-06-04T05:53:44;3.17;;;2.13;;
12719;SDS011;6424;48.520;11.228;2023-06-04T05:56:26;4.03;;;2.23;;
12719;SDS011;6424;48.520;11.228;2023-06-04T05:59:06;4.70;;;2.13;;
12719;SDS011;6424;48.520;11.228;2023-06-04T06:01:48;2.17;;;1.83;;
12719;SDS011;6424;48.520;11.228;2023-06-04T06:04:29;5.07;;;2.00;;
12719;SDS011;6424;48.520;11.228;2023-06-04T06:07:11;3.47;;;2.00;;
12719;SDS011;6424;48.520;11.228;2023-06-04T06:09:36;2.23;;;1.97;;
12719;SDS011;6424;48.520;11.228;2023-06-04T06:12:17;4.77;;;2.30;;
12719;SDS011;6424;48.520;11.228;2023-06-04T06:14:58;4.10;;;1.90;;
12719;SDS011;6424;48.520;11.228;2023-06-04T06:17:39;5.20;;;2.13;;
12719;SDS011;6424;48.520;11.228;2023-06-04T06:20:05;3.43;;;2.13;;
12719;SDS011;6424;48.520;11.228;2023-06-04T06:22:47;2.73;;;2.10;;
12719;SDS011;6424;48.520;11.228;2023-06-04T06:25:28;4.23;;;2.20;;
12719;SDS011;6424;48.520;11.228;2023-06-04T06:28:09;2.53;;;2.00;;
12719;SDS011;6424;48.520;11.228;2023-06-04T06:30:50;2.63;;;1.93;;
12719;SDS011;6424;48.520;11.228;2023-06-04T06:33:30;2.77;;;2.00;;
12719;SDS011;6424;48.520;11.228;2023-06-04T06:36:11;5.27;;;2.30;;
12719;SDS011;6424;48.520;11.228;2023-06-04T06:38:37;3.60;;;2.10;;
12719;SDS011;6424;48.520;11.228;2023-06-04T06:41:18;4.20;;;2.20;;
12719;SDS011;6424;48.520;11.228;2023-06-04T06:43:44;2.60;;;2.30;;
12719;SDS011;6424;48.520;11.228;2023-06-04T06:46:25;3.27;;;2.27;;
12719;SDS011;6424;48.520;11.228;2023-06-04T06:49:06;4.77;;;2.03;;
12719;SDS011;6424;48.520;11.228;2023-06-04T06:51:46;3.63;;;2.10;;
12719;SDS011;6424;48.520;11.228;2023-06-04T06:54:27;7.07;;;2.67;;
12719;SDS011;6424;48.520;11.228;2023-06-04T06:57:08;3.83;;;1.97;;
12719;SDS011;6424;48.520;11.228;2023-06-04T06:59:49;3.27;;;2.40;;
12719;SDS011;6424;48.520;11.228;2023-06-04T07:02:32;3.77;;;2.30;;
12719;SDS011;6424;48.520;11.228;2023-06-04T07:05:13;3.13;;;2.30;;
12719;SDS011;6424;48.520;11.228;2023-06-04T07:07:55;3.30;;;2.17;;
12719;SDS011;6424;48.520;11.228;2023-06-04T07:10:37;4.07;;;2.20;;
12719;SDS011;6424;48.520;11.228;2023-06-04T07:13:18;3.27;;;2.20;;
12719;SDS011;6424;48.520;11.228;2023-06-04T07:15:59;4.10;;;2.10;;
12719;SDS011;6424;48.520;11.228;2023-06-04T07:18:40;3.87;;;2.53;;
12719;SDS011;6424;48.520;11.228;2023-06-04T07:21:20;4.20;;;2.07;;
12719;SDS011;6424;48.520;11.228;2023-06-04T07:24:04;3.33;;;2.40;;
12719;SDS011;6424;48.520;11.228;2023-06-04T07:26:45;2.27;;;2.07;;
12719;SDS011;6424;48.520;11.228;2023-06-04T07:29:25;3.13;;;2.20;;
12719;SDS011;6424;48.520;11.228;2023-06-04T07:32:06;3.27;;;2.30;;
12719;SDS011;6424;48.520;11.228;2023-06-04T07:34:47;3.40;;;2.30;;
12719;SDS011;6424;48.520;11.228;2023-06-04T07:37:28;4.43;;;2.30;;
12719;SDS011;6424;48.520;11.228;2023-06-04T07:40:09;5.20;;;2.40;;
12719;SDS011;6424;48.520;11.228;2023-06-04T07:42:50;3.43;;;2.57;;
12719;SDS011;6424;48.520;11.228;2023-06-04T07:45:31;5.73;;;2.47;;
12719;SDS011;6424;48.520;11.228;2023-06-04T07:48:12;4.10;;;2.20;;
12719;SDS011;6424;48.520;11.228;2023-06-04T07:50:53;5.43;;;2.20;;
12719;SDS011;6424;48.520;11.228;2023-06-04T07:53:34;3.17;;;2.30;;
12719;SDS011;6424;48.520;11.228;2023-06-04T07:56:17;3.73;;;2.20;;
12719;SDS011;6424;48.520;11.228;2023-06-04T07:58:58;4.20;;;2.30;;
12719;SDS011;6424;48.520;11.228;2023-06-04T08:01:39;3.30;;;2.30;;
12719;SDS011;6424;48.520;11.228;2023-06-04T08:04:05;2.10;;;1.90;;
12719;SDS011;6424;48.520;11.228;2023-06-04T08:06:46;4.43;;;2.53;;
12719;SDS011;6424;48.520;11.228;2023-06-04T08:09:27;4.90;;;2.10;;
12719;SDS011;6424;48.520;11.228;2023-06-04T08:12:08;4.47;;;2.50;;
12719;SDS011;6424;48.520;11.228;2023-06-04T08:14:48;3.17;;;2.33;;
12719;SDS011;6424;48.520;11.228;2023-06-04T08:17:30;4.40;;;2.20;;
12719;SDS011;6424;48.520;11.228;2023-06-04T08:20:11;3.23;;;2.30;;
12719;SDS011;6424;48.520;11.228;2023-06-04T08:22:52;3.03;;;2.13;;
12719;SDS011;6424;48.520;11.228;2023-06-04T08:25:32;3.50;;;2.03;;
12719;SDS011;6424;48.520;11.228;2023-06-04T08:28:14;2.53;;;2.00;;
12719;SDS011;6424;48.520;11.228;2023-06-04T08:30:59;4.20;;;2.47;;
12719;SDS011;6424;48.520;11.228;2023-06-04T08:33:25;3.63;;;2.40;;
12719;SDS011;6424;48.520;11.228;2023-06-04T08:36:06;4.43;;;2.30;;
12719;SDS011;6424;48.520;11.228;2023-06-04T08:38:47;3.57;;;2.37;;
12719;SDS011;6424;48.520;11.228;2023-06-04T08:43:58;5.07;;;2.60;;
12719;SDS011;6424;48.520;11.228;2023-06-04T08:46:41;3.83;;;2.20;;
12719;SDS011;6424;48.520;11.228;2023-06-04T08:49:24;3.80;;;2.13;;
12719;SDS011;6424;48.520;11.228;2023-06-04T08:52:06;4.53;;;2.70;;
12719;SDS011;6424;48.520;11.228;2023-06-04T08:54:50;3.53;;;2.53;;
12719;SDS011;6424;48.520;11.228;2023-06-04T08:57:32;3.97;;;2.70;;
12719;SDS011;6424;48.520;11.228;2023-06-04T09:00:13;4.50;;;2.40;;
12719;SDS011;6424;48.520;11.228;2023-06-04T09:02:54;2.70;;;2.20;;
12719;SDS011;6424;48.520;11.228;2023-06-04T09:05:35;3.10;;;2.60;;
12719;SDS011;6424;48.520;11.228;2023-06-04T09:08:17;2.83;;;2.23;;
12719;SDS011;6424;48.520;11.228;2023-06-04T09:10:59;2.43;;;2.10;;
12719;SDS011;6424;48.520;11.228;2023-06-04T09:13:30;2.57;;;2.30;;
12719;SDS011;6424;48.520;11.228;2023-06-04T09:16:12;3.40;;;2.10;;
12719;SDS011;6424;48.520;11.228;2023-06-04T09:18:53;3.13;;;2.50;;
12719;SDS011;6424;48.520;11.228;2023-06-04T09:21:34;3.73;;;2.73;;
12719;SDS011;6424;48.520;11.228;2023-06-04T09:24:40;5.07;;;2.60;;
12719;SDS011;6424;48.520;11.228;2023-06-04T09:27:22;3.50;;;2.50;;
12719;SDS011;6424;48.520;11.228;2023-06-04T09:30:06;4.13;;;2.60;;
12719;SDS011;6424;48.520;11.228;2023-06-04T09:32:49;5.50;;;2.37;;
12719;SDS011;6424;48.520;11.228;2023-06-04T09:35:30;3.47;;;2.23;;
12719;SDS011;6424;48.520;11.228;2023-06-04T09:38:11;5.63;;;2.40;;
12719;SDS011;6424;48.520;11.228;2023-06-04T09:40:51;3.67;;;2.40;;
12719;SDS011;6424;48.520;11.228;2023-06-04T09:43:32;4.33;;;2.27;;
12719;SDS011;6424;48.520;11.228;2023-06-04T09:46:14;4.77;;;2.37;;
12719;SDS011;6424;48.520;11.228;2023-06-04T09:49:03;3.87;;;2.67;;
12719;SDS011;6424;48.520;11.228;2023-06-04T09:51:48;3.43;;;2.40;;
12719;SDS011;6424;48.520;11.228;2023-06-04T09:54:36;3.50;;;2.53;;
12719;SDS011;6424;48.520;11.228;2023-06-04T09:57:18;4.37;;;2.40;;
12719;SDS011;6424;48.520;11.228;2023-06-04T09:59:53;3.43;;;2.37;;
12719;SDS011;6424;48.520;11.228;2023-06-04T10:02:20;3.90;;;2.97;;
12719;SDS011;6424;48.520;11.228;2023-06-04T10:05:01;3.00;;;2.60;;
12719;SDS011;6424;48.520;11.228;2023-06-04T10:07:44;6.30;;;2.80;;
12719;SDS011;6424;48.520;11.228;2023-06-04T10:10:25;4.33;;;2.93;;
12719;SDS011;6424;48.520;11.228;2023-06-04T10:13:09;3.27;;;2.40;;
12719;SDS011;6424;48.520;11.228;2023-06-04T10:15:59;4.97;;;2.53;;
12719;SDS011;6424;48.520;11.228;2023-06-04T10:18:29;3.37;;;2.80;;
12719;SDS011;6424;48.520;11.228;2023-06-04T10:21:13;4.27;;;2.90;;
12719;SDS011;6424;48.520;11.228;2023-06-04T10:23:54;3.40;;;2.83;;
12719;SDS011;6424;48.520;11.228;2023-06-04T10:26:35;2.60;;;2.40;;
12719;SDS011;6424;48.520;11.228;2023-06-04T10:29:02;4.00;;;2.70;;
12719;SDS011;6424;48.520;11.228;2023-06-04T10:31:43;3.30;;;2.60;;
12719;SDS011;6424;48.520;11.228;2023-06-04T10:34:10;5.57;;;2.93;;
12719;SDS011;6424;48.520;11.228;2023-06-04T10:36:52;5.23;;;2.77;;
12719;SDS011;6424;48.520;11.228;2023-06-04T10:39:33;4.63;;;2.83;;
12719;SDS011;6424;48.520;11.228;2023-06-04T10:42:14;4.30;;;3.00;;
12719;SDS011;6424;48.520;11.228;2023-06-04T10:44:56;4.63;;;2.70;;
12719;SDS011;6424;48.520;11.228;2023-06-04T10:47:37;6.00;;;3.30;;
12719;SDS011;6424;48.520;11.228;2023-06-04T10:50:21;5.57;;;2.90;;
12719;SDS011;6424;48.520;11.228;2023-06-04T10:52:50;3.30;;;2.90;;
12719;SDS011;6424;48.520;11.228;2023-06-04T10:55:32;5.93;;;2.90;;
12719;SDS011;6424;48.520;11.228;2023-06-04T10:58:09;5.57;;;3.07;;
12719;SDS011;6424;48.520;11.228;2023-06-04T11:00:50;4.17;;;2.67;;
12719;SDS011;6424;48.520;11.228;2023-06-04T11:03:37;3.90;;;2.93;;
12719;SDS011;6424;48.520;11.228;2023-06-04T11:06:18;4.87;;;2.90;;
12719;SDS011;6424;48.520;11.228;2023-06-04T11:09:03;3.30;;;2.83;;
12719;SDS011;6424;48.520;11.228;2023-06-04T11:11:55;4.03;;;3.00;;
12719;SDS011;6424;48.520;11.228;2023-06-04T11:14:37;4.53;;;2.73;;
12719;SDS011;6424;48.520;11.228;2023-06-04T11:17:19;6.03;;;3.17;;
12719;SDS011;6424;48.520;11.228;2023-06-04T11:19:59;5.13;;;2.83;;
12719;SDS011;6424;48.520;11.228;2023-06-04T11:22:40;5.17;;;3.07;;
12719;SDS011;6424;48.520;11.228;2023-06-04T11:25:21;3.50;;;2.67;;
12719;SDS011;6424;48.520;11.228;2023-06-04T11:28:03;4.20;;;2.90;;
12719;SDS011;6424;48.520;11.228;2023-06-04T11:31:05;6.00;;;2.83;;
12719;SDS011;6424;48.520;11.228;2023-06-04T11:33:46;4.03;;;2.60;;
12719;SDS011;6424;48.520;11.228;2023-06-04T11:36:28;4.77;;;2.60;;
12719;SDS011;6424;48.520;11.228;2023-06-04T11:39:09;4.53;;;2.80;;
12719;SDS011;6424;48.520;11.228;2023-06-04T11:41:52;4.00;;;2.53;;
12719;SDS011;6424;48.520;11.228;2023-06-04T11:44:34;3.17;;;2.70;;
12719;SDS011;6424;48.520;11.228;2023-06-04T11:47:15;4.63;;;2.93;;
12719;SDS011;6424;48.520;11.228;2023-06-04T11:49:56;3.97;;;2.97;;
12719;SDS011;6424;48.520;11.228;2023-06-04T11:52:37;3.83;;;2.83;;
12719;SDS011;6424;48.520;11.228;2023-06-04T11:55:18;4.43;;;3.00;;
12719;SDS011;6424;48.520;11.228;2023-06-04T11:58:02;4.87;;;2.90;;
12719;SDS011;6424;48.520;11.228;2023-06-04T12:00:44;4.57;;;2.90;;
12719;SDS011;6424;48.520;11.228;2023-06-04T12:03:37;4.63;;;3.20;;
12719;SDS011;6424;48.520;11.228;2023-06-04T12:06:22;3.00;;;2.70;;
12719;SDS011;6424;48.520;11.228;2023-06-04T12:09:03;4.47;;;2.77;;
12719;SDS011;6424;48.520;11.228;2023-06-04T12:11:44;5.67;;;2.90;;
12719;SDS011;6424;48.520;11.228;2023-06-04T12:14:25;3.57;;;2.73;;
12719;SDS011;6424;48.520;11.228;2023-06-04T12:17:07;3.97;;;2.60;;
12719;SDS011;6424;48.520;11.228;2023-06-04T12:19:50;3.93;;;2.50;;
12719;SDS011;6424;48.520;11.228;2023-06-04T12:22:31;4.50;;;2.80;;
12719;SDS011;6424;48.520;11.228;2023-06-04T12:25:12;5.50;;;2.90;;
12719;SDS011;6424;48.520;11.228;2023-06-04T12:28:03;3.30;;;2.47;;
12719;SDS011;6424;48.520;11.228;2023-06-04T12:30:36;3.87;;;3.17;;
12719;SDS011;6424;48.520;11.228;2023-06-04T12:33:20;3.13;;;2.70;;
12719;SDS011;6424;48.520;11.228;2023-06-04T12:36:01;4.47;;;2.97;;
12719;SDS011;6424;48.520;11.228;2023-06-04T12:38:42;5.97;;;2.83;;
12719;SDS011;6424;48.520;11.228;2023-06-04T12:41:23;4.90;;;3.30;;
12719;SDS011;6424;48.520;11.228;2023-06-04T12:43:50;3.07;;;2.63;;
12719;SDS011;6424;48.520;11.228;2023-06-04T12:46:31;4.30;;;3.17;;
12719;SDS011;6424;48.520;11.228;2023-06-04T12:49:12;6.73;;;2.90;;
12719;SDS011;6424;48.520;11.228;2023-06-04T12:51:52;4.30;;;3.00;;
12719;SDS011;6424;48.520;11.228;2023-06-04T12:54:33;4.43;;;2.73;;
12719;SDS011;6424;48.520;11.228;2023-06-04T12:57:14;6.10;;;2.90;;
12719;SDS011;6424;48.520;11.228;2023-06-04T12:59:55;4.37;;;2.93;;
12719;SDS011;6424;48.520;11.228;2023-06-04T13:02:37;3.73;;;2.83;;
12719;SDS011;6424;48.520;11.228;2023-06-04T13:05:18;4.83;;;3.10;;
12719;SDS011;6424;48.520;11.228;2023-06-04T13:07:58;5.17;;;3.30;;
12719;SDS011;6424;48.520;11.228;2023-06-04T13:10:39;6.30;;;3.27;;
12719;SDS011;6424;48.520;11.228;2023-06-04T13:13:20;4.37;;;3.10;;
12719;SDS011;6424;48.520;11.228;2023-06-04T13:16:01;8.53;;;3.67;;
12719;SDS011;6424;48.520;11.228;2023-06-04T13:18:43;5.80;;;3.50;;
12719;SDS011;6424;48.520;11.228;2023-06-04T13:21:23;5.30;;;3.40;;
12719;SDS011;6424;48.520;11.228;2023-06-04T13:24:04;4.30;;;3.60;;
12719;SDS011;6424;48.520;11.228;2023-06-04T13:26:47;5.97;;;3.40;;
12719;SDS011;6424;48.520;11.228;2023-06-04T13:29:28;3.73;;;3.17;;
12719;SDS011;6424;48.520;11.228;2023-06-04T13:32:13;4.03;;;3.30;;
12719;SDS011;6424;48.520;11.228;2023-06-04T13:34:54;6.50;;;3.40;;
12719;SDS011;6424;48.520;11.228;2023-06-04T13:37:20;5.80;;;3.70;;
12719;SDS011;6424;48.520;11.228;2023-06-04T13:40:01;4.47;;;3.87;;
12719;SDS011;6424;48.520;11.228;2023-06-04T13:42:42;5.53;;;3.93;;
12719;SDS011;6424;48.520;11.228;2023-06-04T13:45:23;4.93;;;3.90;;
12719;SDS011;6424;48.520;11.228;2023-06-04T13:48:03;5.77;;;4.17;;
12719;SDS011;6424;48.520;11.228;2023-06-04T13:50:47;4.33;;;3.70;;
12719;SDS011;6424;48.520;11.228;2023-06-04T13:53:27;4.03;;;3.40;;
12719;SDS011;6424;48.520;11.228;2023-06-04T13:56:08;5.67;;;3.87;;
12719;SDS011;6424;48.520;11.228;2023-06-04T13:58:49;5.90;;;3.60;;
12719;SDS011;6424;48.520;11.228;2023-06-04T14:01:30;3.40;;;3.10;;
12719;SDS011;6424;48.520;11.228;2023-06-04T14:04:11;4.00;;;3.60;;
12719;SDS011;6424;48.520;11.228;2023-06-04T14:06:52;5.27;;;3.80;;
12719;SDS011;6424;48.520;11.228;2023-06-04T14:09:32;5.83;;;3.20;;
12719;SDS011;6424;48.520;11.228;2023-06-04T14:12:14;4.40;;;3.50;;
12719;SDS011;6424;48.520;11.228;2023-06-04T14:14:58;4.30;;;3.80;;
12719;SDS011;6424;48.520;11.228;2023-06-04T14:17:39;6.13;;;4.10;;
12719;SDS011;6424;48.520;11.228;2023-06-04T14:20:20;4.80;;;3.80;;
12719;SDS011;6424;48.520;11.228;2023-06-04T14:23:01;4.33;;;3.93;;
12719;SDS011;6424;48.520;11.228;2023-06-04T14:25:41;4.17;;;3.77;;
12719;SDS011;6424;48.520;11.228;2023-06-04T14:28:22;3.93;;;3.33;;
12719;SDS011;6424;48.520;11.228;2023-06-04T14:31:03;4.53;;;3.63;;
12719;SDS011;6424;48.520;11.228;2023-06-04T14:33:44;5.07;;;3.80;;
12719;SDS011;6424;48.520;11.228;2023-06-04T14:36:25;3.90;;;3.30;;
12719;SDS011;6424;48.520;11.228;2023-06-04T14:39:05;4.63;;;3.47;;
12719;SDS011;6424;48.520;11.228;2023-06-04T14:41:46;4.87;;;3.23;;
12719;SDS011;6424;48.520;11.228;2023-06-04T14:44:27;4.73;;;3.17;;
12719;SDS011;6424;48.520;11.228;2023-06-04T14:47:08;3.43;;;3.10;;
12719;SDS011;6424;48.520;11.228;2023-06-04T14:49:48;4.17;;;3.27;;
12719;SDS011;6424;48.520;11.228;2023-06-04T14:52:30;4.50;;;3.80;;
12719;SDS011;6424;48.520;11.228;2023-06-04T14:55:11;5.80;;;3.53;;
12719;SDS011;6424;48.520;11.228;2023-06-04T14:57:52;4.00;;;2.93;;
12719;SDS011;6424;48.520;11.228;2023-06-04T15:00:33;3.73;;;3.20;;
12719;SDS011;6424;48.520;11.228;2023-06-04T15:03:13;5.80;;;3.47;;
12719;SDS011;6424;48.520;11.228;2023-06-04T15:05:54;6.27;;;3.30;;
12719;SDS011;6424;48.520;11.228;2023-06-04T15:08:35;6.27;;;3.40;;
12719;SDS011;6424;48.520;11.228;2023-06-04T15:11:16;5.10;;;3.70;;
12719;SDS011;6424;48.520;11.228;2023-06-04T15:13:57;4.77;;;3.40;;
12719;SDS011;6424;48.520;11.228;2023-06-04T15:16:38;3.90;;;3.10;;
12719;SDS011;6424;48.520;11.228;2023-06-04T15:19:03;4.17;;;3.13;;
12719;SDS011;6424;48.520;11.228;2023-06-04T15:21:46;3.80;;;3.27;;
12719;SDS011;6424;48.520;11.228;2023-06-04T15:24:26;4.43;;;2.80;;
12719;SDS011;6424;48.520;11.228;2023-06-04T15:27:07;3.80;;;3.50;;
12719;SDS011;6424;48.520;11.228;2023-06-04T15:29:48;5.00;;;3.70;;
12719;SDS011;6424;48.520;11.228;2023-06-04T15:32:14;6.20;;;3.50;;
12719;SDS011;6424;48.520;11.228;2023-06-04T15:34:54;6.37;;;3.70;;
12719;SDS011;6424;48.520;11.228;2023-06-04T15:37:35;5.00;;;3.63;;
12719;SDS011;6424;48.520;11.228;2023-06-04T15:40:16;5.47;;;3.40;;
12719;SDS011;6424;48.520;11.228;2023-06-04T15:42:57;4.63;;;3.47;;
12719;SDS011;6424;48.520;11.228;2023-06-04T15:45:38;6.53;;;3.90;;
12719;SDS011;6424;48.520;11.228;2023-06-04T15:48:18;4.27;;;3.30;;
12719;SDS011;6424;48.520;11.228;2023-06-04T15:50:44;4.67;;;3.50;;
12719;SDS011;6424;48.520;11.228;2023-06-04T15:53:25;3.40;;;3.10;;
12719;SDS011;6424;48.520;11.228;2023-06-04T15:56:06;5.50;;;3.30;;
12719;SDS011;6424;48.520;11.228;2023-06-04T15:58:47;4.13;;;3.53;;
12719;SDS011;6424;48.520;11.228;2023-06-04T16:01:28;4.10;;;3.70;;
12719;SDS011;6424;48.520;11.228;2023-06-04T16:03:54;4.27;;;3.40;;
12719;SDS011;6424;48.520;11.228;2023-06-04T16:06:35;3.40;;;3.10;;
12719;SDS011;6424;48.520;11.228;2023-06-04T16:09:17;3.93;;;3.50;;
12719;SDS011;6424;48.520;11.228;2023-06-04T16:11:43;5.27;;;3.20;;